Time,TemperatureF,DewpointF,PressureIn,WindDirection,WindDirectionDegrees,WindSpeedMPH,WindSpeedGustMPH,Humidity,HourlyPrecipIn,Conditions,Clouds,dailyrainin,SoftwareType,DateUTC
2013-02-26 00:14:00,32.2,28.0,30.16,NW,317,0.0,0.0,83,0.00,,,0.00,weatherlink.com 1.10,2013-02-26 05:14:00,
2013-02-26 00:29:00,31.8,28.0,30.16,NW,317,0.0,0.0,84,0.00,,,0.00,weatherlink.com 1.10,2013-02-26 05:29:00,
2013-02-26 00:44:00,31.3,27.0,30.16,NW,317,0.0,0.0,84,0.00,,,0.00,weatherlink.com 1.10,2013-02-26 05:44:00,
2013-02-26 00:59:00,30.8,27.0,30.16,NW,317,0.0,0.0,85,0.00,,,0.00,weatherlink.com 1.10,2013-02-26 05:59:00,
2013-02-26 01:14:00,30.6,27.0,30.18,NW,317,0.0,0.0,87,0.00,,,0.00,weatherlink.com 1.10,2013-02-26 06:14:00,
2013-02-26 01:29:00,30.7,27.0,30.20,NW,317,0.0,1.0,87,0.00,,,0.00,weatherlink.com 1.10,2013-02-26 06:29:00,
2013-02-26 01:44:00,30.8,28.0,30.20,NW,317,0.0,1.0,88,0.00,,,0.00,weatherlink.com 1.10,2013-02-26 06:44:00,
2013-02-26 01:59:00,31.1,28.0,30.20,NW,317,0.0,0.0,88,0.00,,,0.00,weatherlink.com 1.10,2013-02-26 06:59:00,
2013-02-26 02:14:00,31.1,28.0,30.19,NW,317,0.0,0.0,88,0.00,,,0.00,weatherlink.com 1.10,2013-02-26 07:14:00,
2013-02-26 02:29:00,31.1,28.0,30.19,NW,317,0.0,0.0,88,0.00,,,0.00,weatherlink.com 1.10,2013-02-26 07:29:00,
2013-02-26 02:44:00,31.0,28.0,30.19,NW,317,0.0,0.0,88,0.00,,,0.00,weatherlink.com 1.10,2013-02-26 07:44:00,
2013-02-26 02:59:00,31.0,28.0,30.19,NW,317,0.0,0.0,88,0.00,,,0.00,weatherlink.com 1.10,2013-02-26 07:59:00,
2013-02-26 03:14:00,30.6,28.0,30.19,NW,317,0.0,0.0,88,0.00,,,0.00,weatherlink.com 1.10,2013-02-26 08:14:00,
2013-02-26 03:29:00,30.2,27.0,30.19,NW,317,0.0,0.0,89,0.00,,,0.00,weatherlink.com 1.10,2013-02-26 08:29:00,
2013-02-26 03:44:00,29.8,27.0,30.19,NW,317,0.0,0.0,89,0.00,,,0.00,weatherlink.com 1.10,2013-02-26 08:44:00,
2013-02-26 03:59:00,29.4,27.0,30.20,NW,317,0.0,0.0,89,0.00,,,0.00,weatherlink.com 1.10,2013-02-26 08:59:00,
2013-02-26 04:14:00,29.1,27.0,30.20,NW,317,0.0,0.0,90,0.00,,,0.00,weatherlink.com 1.10,2013-02-26 09:14:00,
2013-02-26 04:29:00,28.8,26.0,30.19,NW,317,0.0,0.0,90,0.00,,,0.00,weatherlink.com 1.10,2013-02-26 09:29:00,
2013-02-26 04:44:00,28.6,26.0,30.18,NW,317,0.0,0.0,91,0.00,,,0.00,weatherlink.com 1.10,2013-02-26 09:44:00,
2013-02-26 04:59:00,28.4,26.0,30.19,NW,317,0.0,0.0,91,0.00,,,0.00,weatherlink.com 1.10,2013-02-26 09:59:00,
2013-02-26 05:14:00,28.1,26.0,30.18,NW,317,0.0,0.0,91,0.00,,,0.00,weatherlink.com 1.10,2013-02-26 10:14:00,
2013-02-26 05:29:00,27.9,26.0,30.18,NW,317,0.0,0.0,92,0.00,,,0.00,weatherlink.com 1.10,2013-02-26 10:29:00,
2013-02-26 05:44:00,28.0,26.0,30.18,NW,317,0.0,0.0,92,0.00,,,0.00,weatherlink.com 1.10,2013-02-26 10:44:00,
2013-02-26 05:59:00,28.1,26.0,30.18,NW,317,0.0,0.0,92,0.00,,,0.00,weatherlink.com 1.10,2013-02-26 10:59:00,
2013-02-26 06:14:00,28.4,27.0,30.18,NW,317,0.0,0.0,93,0.00,,,0.00,weatherlink.com 1.10,2013-02-26 11:14:00,
2013-02-26 06:29:00,28.6,27.0,30.19,NW,317,0.0,0.0,92,0.00,,,0.00,weatherlink.com 1.10,2013-02-26 11:29:00,
2013-02-26 06:44:00,28.5,27.0,30.18,NW,317,0.0,0.0,92,0.00,,,0.00,weatherlink.com 1.10,2013-02-26 11:44:00,
2013-02-26 06:59:00,28.7,27.0,30.19,NW,317,0.0,0.0,92,0.00,,,0.00,weatherlink.com 1.10,2013-02-26 11:59:00,
2013-02-26 07:14:00,29.1,27.0,30.20,NW,317,0.0,0.0,93,0.00,,,0.00,weatherlink.com 1.10,2013-02-26 12:14:00,
2013-02-26 07:29:00,29.9,28.0,30.21,NW,317,0.0,0.0,93,0.00,,,0.00,weatherlink.com 1.10,2013-02-26 12:29:00,
2013-02-26 07:44:00,31.1,29.0,30.22,NW,317,0.0,1.0,93,0.00,,,0.00,weatherlink.com 1.10,2013-02-26 12:44:00,
2013-02-26 07:59:00,32.5,31.0,30.22,NW,317,0.0,1.0,92,0.00,,,0.00,weatherlink.com 1.10,2013-02-26 12:59:00,
2013-02-26 08:14:00,34.3,31.0,30.22,NW,317,0.0,2.0,88,0.00,,,0.00,weatherlink.com 1.10,2013-02-26 13:14:00,
2013-02-26 08:30:00,36.0,32.0,30.23,NNW,327,0.0,2.0,85,0.00,,,0.00,weatherlink.com 1.10,2013-02-26 13:30:00,
2013-02-26 08:45:00,37.3,33.0,30.22,NNE,25,0.0,2.0,83,0.00,,,0.00,weatherlink.com 1.10,2013-02-26 13:45:00,
2013-02-26 09:00:00,38.4,33.0,30.22,NNE,28,0.0,2.0,82,0.00,,,0.00,weatherlink.com 1.10,2013-02-26 14:00:00,
2013-02-26 09:15:00,39.5,34.0,30.22,NNE,33,1.0,3.0,80,0.00,,,0.00,weatherlink.com 1.10,2013-02-26 14:15:00,
2013-02-26 09:30:00,40.5,35.0,30.21,East,80,1.0,3.0,80,0.00,,,0.00,weatherlink.com 1.10,2013-02-26 14:30:00,
2013-02-26 09:45:00,41.5,35.0,30.21,ESE,105,1.0,4.0,78,0.00,,,0.00,weatherlink.com 1.10,2013-02-26 14:45:00,
2013-02-26 10:00:00,42.1,35.0,30.21,SE,128,3.0,5.0,75,0.00,,,0.00,weatherlink.com 1.10,2013-02-26 15:00:00,
2013-02-26 10:15:00,42.9,35.0,30.22,ENE,76,4.0,7.0,73,0.00,,,0.00,weatherlink.com 1.10,2013-02-26 15:15:00,
2013-02-26 10:30:00,43.3,34.0,30.22,ESE,107,2.0,7.0,70,0.00,,,0.00,weatherlink.com 1.10,2013-02-26 15:30:00,
2013-02-26 10:45:00,43.4,34.0,30.21,ESE,122,2.0,7.0,69,0.00,,,0.00,weatherlink.com 1.10,2013-02-26 15:45:00,
2013-02-26 11:00:00,43.3,33.0,30.21,SSE,157,2.0,16.0,67,0.00,,,0.00,weatherlink.com 1.10,2013-02-26 16:00:00,
2013-02-26 11:15:00,43.2,34.0,30.22,ESE,121,3.0,10.0,70,0.00,,,0.00,weatherlink.com 1.10,2013-02-26 16:15:00,
2013-02-26 11:30:00,43.2,34.0,30.21,SE,146,6.0,10.0,69,0.00,,,0.00,weatherlink.com 1.10,2013-02-26 16:30:00,
2013-02-26 11:45:00,43.3,34.0,30.20,East,86,6.0,9.0,70,0.00,,,0.00,weatherlink.com 1.10,2013-02-26 16:45:00,
2013-02-26 12:00:00,43.4,35.0,30.20,ESE,111,3.0,10.0,72,0.00,,,0.00,weatherlink.com 1.10,2013-02-26 17:00:00,
2013-02-26 12:15:00,43.7,35.0,30.19,East,86,2.0,12.0,72,0.00,,,0.00,weatherlink.com 1.10,2013-02-26 17:15:00,
2013-02-26 12:30:00,43.5,35.0,30.19,ENE,67,3.0,7.0,72,0.00,,,0.00,weatherlink.com 1.10,2013-02-26 17:30:00,
2013-02-26 12:45:00,43.8,34.0,30.19,ENE,71,3.0,7.0,69,0.00,,,0.00,weatherlink.com 1.10,2013-02-26 17:45:00,
2013-02-26 13:00:00,44.2,35.0,30.18,SE,127,1.0,7.0,70,0.00,,,0.00,weatherlink.com 1.10,2013-02-26 18:00:00,
2013-02-26 13:15:00,44.2,35.0,30.17,SSE,150,5.0,10.0,69,0.00,,,0.00,weatherlink.com 1.10,2013-02-26 18:15:00,
2013-02-26 13:30:00,43.9,35.0,30.16,ENE,76,5.0,10.0,70,0.00,,,0.00,weatherlink.com 1.10,2013-02-26 18:30:00,
2013-02-26 13:45:00,43.6,34.0,30.15,ESE,111,4.0,12.0,69,0.00,,,0.00,weatherlink.com 1.10,2013-02-26 18:45:00,
2013-02-26 14:00:00,43.4,34.0,30.16,East,97,9.0,9.0,70,0.00,,,0.00,weatherlink.com 1.10,2013-02-26 19:00:00,
2013-02-26 14:15:00,42.9,34.0,30.16,East,98,3.0,8.0,70,0.00,,,0.00,weatherlink.com 1.10,2013-02-26 19:15:00,
2013-02-26 14:30:00,42.6,34.0,30.15,ESE,112,5.0,11.0,71,0.00,,,0.00,weatherlink.com 1.10,2013-02-26 19:30:00,
2013-02-26 14:45:00,42.2,33.0,30.14,ESE,102,3.0,10.0,71,0.00,,,0.00,weatherlink.com 1.10,2013-02-26 19:45:00,
2013-02-26 15:00:00,42.1,34.0,30.13,East,88,5.0,11.0,72,0.00,,,0.00,weatherlink.com 1.10,2013-02-26 20:00:00,
2013-02-26 15:15:00,41.6,34.0,30.13,East,92,2.0,13.0,74,0.00,,,0.00,weatherlink.com 1.10,2013-02-26 20:15:00,
2013-02-26 15:30:00,41.3,34.0,30.12,East,88,8.0,8.0,76,0.00,,,0.00,weatherlink.com 1.10,2013-02-26 20:30:00,
2013-02-26 15:45:00,41.0,34.0,30.12,ENE,63,7.0,14.0,75,0.00,,,0.00,weatherlink.com 1.10,2013-02-26 20:45:00,
2013-02-26 16:00:00,40.8,33.0,30.13,SE,138,10.0,12.0,75,0.00,,,0.00,weatherlink.com 1.10,2013-02-26 21:00:00,
2013-02-26 16:15:00,40.7,34.0,30.11,ESE,104,8.0,11.0,76,0.00,,,0.00,weatherlink.com 1.10,2013-02-26 21:15:00,
2013-02-26 16:30:00,40.5,34.0,30.11,ENE,69,4.0,10.0,76,0.00,,,0.00,weatherlink.com 1.10,2013-02-26 21:30:00,
2013-02-26 16:45:00,40.4,34.0,30.09,East,85,9.0,10.0,77,0.00,,,0.00,weatherlink.com 1.10,2013-02-26 21:45:00,
2013-02-26 17:00:00,40.2,34.0,30.08,ENE,71,10.0,13.0,77,0.00,,,0.00,weatherlink.com 1.10,2013-02-26 22:00:00,
2013-02-26 17:15:00,40.1,33.0,30.08,East,79,9.0,11.0,76,0.00,,,0.00,weatherlink.com 1.10,2013-02-26 22:15:00,
2013-02-26 17:30:00,40.0,33.0,30.07,ESE,105,1.0,16.0,76,0.00,,,0.00,weatherlink.com 1.10,2013-02-26 22:30:00,
2013-02-26 17:45:00,39.9,33.0,30.07,SE,125,10.0,12.0,75,0.00,,,0.00,weatherlink.com 1.10,2013-02-26 22:45:00,
2013-02-26 18:00:00,39.8,32.0,30.07,SSE,157,9.0,12.0,74,0.00,,,0.00,weatherlink.com 1.10,2013-02-26 23:00:00,
2013-02-26 18:16:00,39.7,32.0,30.06,ESE,105,8.0,15.0,74,0.00,,,0.00,weatherlink.com 1.10,2013-02-26 23:16:00,
2013-02-26 18:31:00,39.7,32.0,30.06,SE,129,5.0,11.0,75,0.00,,,0.00,weatherlink.com 1.10,2013-02-26 23:31:00,
2013-02-26 18:46:00,39.6,32.0,30.05,ENE,77,3.0,9.0,74,0.00,,,0.00,weatherlink.com 1.10,2013-02-26 23:46:00,
2013-02-26 19:01:00,39.5,31.0,30.05,SE,140,4.0,14.0,71,0.00,,,0.00,weatherlink.com 1.10,2013-02-27 00:01:00,
2013-02-26 19:16:00,39.4,31.0,30.04,East,80,7.0,13.0,71,0.00,,,0.00,weatherlink.com 1.10,2013-02-27 00:16:00,
2013-02-26 19:31:00,39.2,32.0,30.02,East,92,6.0,11.0,74,0.00,,,0.00,weatherlink.com 1.10,2013-02-27 00:31:00,
2013-02-26 19:46:00,38.9,32.0,30.02,SE,138,5.0,14.0,76,0.00,,,0.00,weatherlink.com 1.10,2013-02-27 00:46:00,
2013-02-26 20:01:00,38.9,33.0,30.02,East,82,11.0,11.0,79,0.00,,,0.00,weatherlink.com 1.10,2013-02-27 01:01:00,
2013-02-26 20:16:00,38.8,33.0,30.00,East,79,7.0,11.0,81,0.00,,,0.00,weatherlink.com 1.10,2013-02-27 01:16:00,
2013-02-26 20:31:00,38.7,33.0,29.98,ENE,72,5.0,13.0,80,0.00,,,0.00,weatherlink.com 1.10,2013-02-27 01:31:00,
2013-02-26 20:46:00,38.8,33.0,29.96,East,89,5.0,13.0,78,0.00,,,0.00,weatherlink.com 1.10,2013-02-27 01:46:00,
2013-02-26 21:01:00,38.8,33.0,29.95,ESE,113,5.0,12.0,78,0.00,,,0.00,weatherlink.com 1.10,2013-02-27 02:01:00,
2013-02-26 21:16:00,38.7,33.0,29.94,ESE,110,5.0,11.0,79,0.00,,,0.00,weatherlink.com 1.10,2013-02-27 02:16:00,
2013-02-26 21:31:00,38.3,33.0,29.94,ENE,75,3.0,11.0,82,0.00,,,0.00,weatherlink.com 1.10,2013-02-27 02:31:00,
2013-02-26 21:46:00,38.2,34.0,29.94,East,83,3.0,11.0,83,0.00,,,0.00,weatherlink.com 1.10,2013-02-27 02:46:00,
2013-02-26 22:01:00,38.0,34.0,29.94,East,80,2.0,8.0,86,0.00,,,0.00,weatherlink.com 1.10,2013-02-27 03:01:00,
2013-02-26 22:16:00,37.6,35.0,29.91,East,90,5.0,15.0,89,0.04,,,0.04,weatherlink.com 1.10,2013-02-27 03:16:00,
2013-02-26 22:31:00,37.3,35.0,29.89,ESE,106,3.0,9.0,91,0.06,,,0.06,weatherlink.com 1.10,2013-02-27 03:31:00,
2013-02-26 22:46:00,37.3,35.0,29.88,ESE,109,4.0,8.0,92,0.07,,,0.07,weatherlink.com 1.10,2013-02-27 03:46:00,
2013-02-26 23:01:00,37.1,35.0,29.85,ESE,109,5.0,11.0,92,0.07,,,0.08,weatherlink.com 1.10,2013-02-27 04:01:00,
2013-02-26 23:16:00,37.2,35.0,29.84,ENE,60,3.0,9.0,93,0.04,,,0.08,weatherlink.com 1.10,2013-02-27 04:16:00,
2013-02-26 23:31:00,37.3,36.0,29.82,NE,55,5.0,10.0,93,0.02,,,0.09,weatherlink.com 1.10,2013-02-27 04:31:00,
2013-02-26 23:46:00,37.5,36.0,29.81,ESE,111,2.0,10.0,93,0.05,,,0.12,weatherlink.com 1.10,2013-02-27 04:46:00,